Time;durP1;ratioP1;P1;durP2;ratioP2;P2;SDS_P1;SDS_P2;PMS_P1;PMS_P2;Temp;Humidity;BMP_temperature;BMP_pressure;BME280_temperature;BME280_humidity;BME280_pressure;Samples;Min_cycle;Max_cycle;Signal;HPM_P1;HPM_P2
2021/08/04 00:00:37;;;;;;;3.15;1.30;;;18.20;84.80;;;;;;4826853;29;20066;-86
2021/08/04 00:03:03;;;;;;;3.00;1.30;;;18.10;84.90;;;;;;4826823;29;20042;-85
2021/08/04 00:05:29;;;;;;;2.92;1.30;;;18.10;85.20;;;;;;4825403;29;20065;-85
2021/08/04 00:07:54;;;;;;;3.17;1.50;;;18.10;85.30;;;;;;4838971;29;20054;-85
2021/08/04 00:10:21;;;;;;;2.53;1.50;;;18.00;85.30;;;;;;4844330;29;20054;-85
2021/08/04 00:12:47;;;;;;;2.13;1.15;;;18.00;85.40;;;;;;4843769;29;20050;-86
2021/08/04 00:15:15;;;;;;;3.00;1.35;;;18.00;85.40;;;;;;4844055;29;20495;-84
2021/08/04 00:17:41;;;;;;;3.75;1.35;;;17.90;85.70;;;;;;4843936;29;20109;-84
2021/08/04 00:20:08;;;;;;;2.63;1.40;;;17.80;85.40;;;;;;4825101;29;20200;-85
2021/08/04 00:22:34;;;;;;;4.53;1.60;;;17.80;85.40;;;;;;4825763;29;20058;-85
2021/08/04 00:25:00;;;;;;;3.40;1.50;;;17.80;85.70;;;;;;4825912;29;20061;-85
2021/08/04 00:27:27;;;;;;;3.22;1.45;;;17.80;85.80;;;;;;4825630;29;20547;-85
2021/08/04 00:29:54;;;;;;;3.03;1.30;;;17.70;85.90;;;;;;4826234;29;20407;-85
2021/08/04 00:32:20;;;;;;;2.88;1.50;;;17.70;86.30;;;;;;4825209;29;20053;-85
2021/08/04 00:34:46;;;;;;;2.88;1.23;;;17.70;86.40;;;;;;4826233;29;20066;-85
2021/08/04 00:37:12;;;;;;;2.67;1.55;;;17.60;86.30;;;;;;4825739;29;20461;-85
2021/08/04 00:39:38;;;;;;;4.18;1.65;;;17.60;86.40;;;;;;4841161;29;20082;-85
2021/08/04 00:42:05;;;;;;;4.15;1.38;;;17.60;86.50;;;;;;4843797;29;20133;-84
2021/08/04 00:44:30;;;;;;;4.03;1.77;;;17.60;86.50;;;;;;4843992;29;20053;-84
2021/08/04 00:46:56;;;;;;;2.38;1.40;;;17.60;86.60;;;;;;4843279;29;20046;-85
2021/08/04 00:49:22;;;;;;;3.30;1.20;;;17.50;86.40;;;;;;4843799;29;20463;-84
2021/08/04 00:51:48;;;;;;;3.15;1.50;;;17.50;86.60;;;;;;4843696;29;20049;-85
2021/08/04 00:54:13;;;;;;;3.75;1.50;;;17.50;86.70;;;;;;4842518;29;20084;-85
2021/08/04 00:56:39;;;;;;;2.38;1.40;;;17.50;86.50;;;;;;4843606;29;20068;-84
2021/08/04 00:59:07;;;;;;;1.95;1.17;;;17.40;86.50;;;;;;4843558;29;20133;-84
2021/08/04 01:01:45;;;;;;;2.13;1.13;;;17.40;86.60;;;;;;4839776;29;20062;-85
2021/08/04 01:04:18;;;;;;;2.25;1.10;;;17.30;86.30;;;;;;4824790;29;20070;-85
2021/08/04 01:06:56;;;;;;;2.83;1.23;;;17.30;86.10;;;;;;4825925;29;20059;-85
2021/08/04 01:09:26;;;;;;;2.28;1.23;;;17.30;85.60;;;;;;4838070;29;20049;-85
2021/08/04 01:12:00;;;;;;;4.40;1.30;;;17.30;86.40;;;;;;4843755;29;20447;-85
2021/08/04 01:14:28;;;;;;;2.97;1.30;;;17.20;86.20;;;;;;4843167;29;20076;-86
2021/08/04 01:16:54;;;;;;;3.72;1.30;;;17.20;86.40;;;;;;4843550;29;20057;-85
2021/08/04 01:19:27;;;;;;;2.83;1.30;;;17.20;86.20;;;;;;4841899;29;20098;-85
2021/08/04 01:22:29;;;;;;;3.25;1.50;;;17.20;86.20;;;;;;4842821;29;20053;-85
2021/08/04 01:25:32;;;;;;;4.20;1.35;;;17.10;85.20;;;;;;4841952;29;20113;-85
2021/08/04 01:28:19;;;;;;;2.83;1.23;;;17.10;85.20;;;;;;4836951;29;20060;-85
2021/08/04 01:30:46;;;;;;;3.45;1.23;;;17.10;85.90;;;;;;4842976;29;20141;-87
2021/08/04 01:33:14;;;;;;;2.47;1.38;;;17.00;85.80;;;;;;4836919;29;20043;-86
2021/08/04 01:35:41;;;;;;;2.80;1.20;;;17.00;86.40;;;;;;4824767;29;20058;-85
2021/08/04 01:38:08;;;;;;;3.03;1.20;;;17.00;86.80;;;;;;4824950;29;20062;-86
2021/08/04 01:40:35;;;;;;;1.98;1.10;;;17.00;87.10;;;;;;4825481;29;20073;-85
2021/08/04 01:43:01;;;;;;;3.22;1.40;;;17.00;86.90;;;;;;4824354;29;20060;-85
2021/08/04 01:45:28;;;;;;;2.17;1.23;;;17.00;87.20;;;;;;4825178;29;20110;-85
2021/08/04 01:47:54;;;;;;;3.85;1.23;;;16.90;86.90;;;;;;4824964;29;20084;-85
2021/08/04 01:50:20;;;;;;;3.33;1.30;;;16.90;87.00;;;;;;4824536;29;20062;-86
2021/08/04 01:52:45;;;;;;;2.88;1.20;;;16.90;87.00;;;;;;4825560;29;20047;-86
2021/08/04 01:55:12;;;;;;;2.85;1.45;;;16.90;87.20;;;;;;4824894;29;20078;-85
2021/08/04 01:57:39;;;;;;;2.95;1.15;;;16.90;87.10;;;;;;4824395;29;20050;-86
2021/08/04 02:00:05;;;;;;;2.55;1.35;;;16.90;87.00;;;;;;4824828;29;20133;-85
2021/08/04 02:02:31;;;;;;;2.92;1.20;;;16.90;86.70;;;;;;4824945;29;20102;-86
2021/08/04 02:04:56;;;;;;;2.03;1.10;;;16.90;86.20;;;;;;4824602;29;20053;-85
2021/08/04 02:07:57;;;;;;;3.40;1.40;;;16.80;86.10;;;;;;4826105;29;20061;-86
2021/08/04 02:10:31;;;;;;;3.50;1.30;;;16.80;86.40;;;;;;4827424;29;20388;-87
2021/08/04 02:13:07;;;;;;;2.30;1.30;;;16.80;87.00;;;;;;4827546;29;20050;-85
2021/08/04 02:15:38;;;;;;;2.80;1.30;;;16.80;87.10;;;;;;4828405;29;20087;-86
2021/08/04 02:18:09;;;;;;;2.30;1.10;;;16.80;87.20;;;;;;4827245;29;20055;-85
2021/08/04 02:20:38;;;;;;;3.33;1.30;;;16.80;86.40;;;;;;4828135;29;20065;-85
2021/08/04 02:23:18;;;;;;;2.63;1.15;;;16.70;86.70;;;;;;4827800;29;20050;-88
2021/08/04 02:25:50;;;;;;;2.75;1.30;;;16.70;86.60;;;;;;4827179;29;20464;-88
2021/08/04 02:28:21;;;;;;;3.63;1.45;;;16.70;86.80;;;;;;4827945;29;20053;-86
2021/08/04 02:30:50;;;;;;;4.47;1.30;;;16.70;87.20;;;;;;4828267;29;20545;-85
2021/08/04 02:33:17;;;;;;;3.25;1.35;;;16.70;87.20;;;;;;4827126;29;20050;-85
2021/08/04 02:35:43;;;;;;;3.45;1.35;;;16.70;87.10;;;;;;4827684;29;20469;-86
2021/08/04 02:38:08;;;;;;;3.38;1.40;;;16.60;87.20;;;;;;4827196;29;20142;-86
2021/08/04 02:40:34;;;;;;;2.67;1.30;;;16.60;87.60;;;;;;4827334;29;20133;-87
2021/08/04 02:43:01;;;;;;;2.63;1.30;;;16.70;87.90;;;;;;4827668;29;20050;-86
2021/08/04 02:45:27;;;;;;;2.75;1.60;;;16.70;88.10;;;;;;4827710;29;20058;-88
2021/08/04 02:47:53;;;;;;;3.00;1.27;;;16.70;88.20;;;;;;4826978;29;20066;-86
2021/08/04 02:50:22;;;;;;;3.08;1.40;;;16.70;88.20;;;;;;4827135;29;20149;-86
2021/08/04 02:52:48;;;;;;;2.90;1.35;;;16.70;87.80;;;;;;4827356;29;20058;-85
2021/08/04 02:55:14;;;;;;;4.20;1.55;;;16.70;87.50;;;;;;4827084;29;20054;-86
2021/08/04 02:57:40;;;;;;;3.40;1.30;;;16.60;87.10;;;;;;4827314;29;20051;-86
2021/08/04 03:00:06;;;;;;;2.55;1.30;;;16.60;87.80;;;;;;4826648;29;20054;-86
2021/08/04 03:02:33;;;;;;;2.17;1.30;;;16.70;88.00;;;;;;4842615;29;20121;-86
2021/08/04 03:04:58;;;;;;;3.03;1.45;;;16.60;87.80;;;;;;4845830;29;20074;-87
2021/08/04 03:07:24;;;;;;;3.03;1.45;;;16.60;87.50;;;;;;4845410;29;20084;-86
2021/08/04 03:09:50;;;;;;;2.30;1.20;;;16.60;87.60;;;;;;4846004;29;20088;-85
2021/08/04 03:12:15;;;;;;;3.35;1.42;;;16.60;88.10;;;;;;4845547;29;20106;-86
2021/08/04 03:14:41;;;;;;;2.47;1.20;;;16.60;87.90;;;;;;4845111;29;20046;-86
2021/08/04 03:17:07;;;;;;;3.75;1.30;;;16.60;88.00;;;;;;4845514;29;20091;-85
2021/08/04 03:19:32;;;;;;;2.53;1.27;;;16.60;87.70;;;;;;4845396;29;20054;-86
2021/08/04 03:21:58;;;;;;;2.50;1.38;;;16.60;87.70;;;;;;4844541;29;20463;-85
2021/08/04 03:24:23;;;;;;;2.55;1.10;;;16.60;87.70;;;;;;4845335;29;20562;-86
2021/08/04 03:26:49;;;;;;;2.67;1.10;;;16.60;87.80;;;;;;4845555;29;20057;-86
2021/08/04 03:29:15;;;;;;;3.70;1.33;;;16.60;87.70;;;;;;4844870;29;20466;-86
2021/08/04 03:31:40;;;;;;;3.50;1.48;;;16.50;87.40;;;;;;4836327;29;20057;-85
2021/08/04 03:34:06;;;;;;;3.05;1.38;;;16.60;87.80;;;;;;4826767;29;20061;-88
2021/08/04 03:36:31;;;;;;;2.50;1.17;;;16.50;87.60;;;;;;4826305;29;20112;-87
2021/08/04 03:38:57;;;;;;;3.05;1.23;;;16.50;87.50;;;;;;4826403;29;20058;-87
2021/08/04 03:41:23;;;;;;;2.60;1.30;;;16.50;87.10;;;;;;4826688;29;20050;-86
2021/08/04 03:43:49;;;;;;;2.60;1.42;;;16.40;87.10;;;;;;4826040;29;20074;-86
2021/08/04 03:46:15;;;;;;;2.85;1.20;;;16.50;87.80;;;;;;4826680;29;20110;-86
2021/08/04 03:48:40;;;;;;;1.92;1.05;;;16.50;87.80;;;;;;4826964;29;20054;-86
2021/08/04 03:51:06;;;;;;;4.40;1.45;;;16.40;87.70;;;;;;4825708;29;20467;-85
2021/08/04 03:53:32;;;;;;;2.83;1.40;;;16.40;88.00;;;;;;4826754;29;20149;-86
2021/08/04 03:56:00;;;;;;;3.17;1.27;;;16.40;88.10;;;;;;4826509;29;20054;-86
2021/08/04 03:58:26;;;;;;;2.53;1.20;;;16.40;88.00;;;;;;4825824;29;20126;-86
2021/08/04 04:00:51;;;;;;;2.78;1.25;;;16.40;88.10;;;;;;4826570;29;20050;-86
2021/08/04 04:03:17;;;;;;;3.28;1.40;;;16.40;88.10;;;;;;4825651;29;20360;-86
2021/08/04 04:05:43;;;;;;;2.15;1.20;;;16.40;88.10;;;;;;4826579;29;20065;-86
2021/08/04 04:08:09;;;;;;;2.88;1.40;;;16.40;88.20;;;;;;4826487;29;20538;-85
2021/08/04 04:10:35;;;;;;;3.35;1.30;;;16.40;88.50;;;;;;4825930;29;20054;-86
2021/08/04 04:13:01;;;;;;;2.63;1.23;;;16.30;88.30;;;;;;4826015;29;20047;-86
2021/08/04 04:15:26;;;;;;;3.75;1.30;;;16.30;88.20;;;;;;4826403;29;20051;-87
2021/08/04 04:17:52;;;;;;;2.53;1.10;;;16.30;88.50;;;;;;4825860;29;20610;-85
2021/08/04 04:20:17;;;;;;;2.75;1.20;;;16.30;88.50;;;;;;4838982;29;20122;-85
2021/08/04 04:22:44;;;;;;;2.20;1.20;;;16.30;88.40;;;;;;4844626;29;20057;-86
2021/08/04 04:25:14;;;;;;;3.15;1.35;;;16.30;88.60;;;;;;4843553;29;20057;-86
2021/08/04 04:27:41;;;;;;;4.63;1.30;;;16.20;88.70;;;;;;4827509;29;20059;-86
2021/08/04 04:30:08;;;;;;;3.28;1.52;;;16.20;89.00;;;;;;4825463;29;20054;-86
2021/08/04 04:32:34;;;;;;;2.30;1.15;;;16.20;88.70;;;;;;4825425;29;20097;-85
2021/08/04 04:35:00;;;;;;;2.53;1.23;;;16.20;88.70;;;;;;4826198;29;20084;-85
2021/08/04 04:37:26;;;;;;;2.22;1.17;;;16.20;88.90;;;;;;4825726;29;20066;-87
2021/08/04 04:39:52;;;;;;;3.13;1.33;;;16.20;89.00;;;;;;4825771;29;20057;-86
2021/08/04 04:42:18;;;;;;;2.85;1.10;;;16.20;89.00;;;;;;4825927;29;20062;-86
2021/08/04 04:44:43;;;;;;;3.10;1.30;;;16.20;88.40;;;;;;4825918;29;20133;-85
2021/08/04 04:47:09;;;;;;;3.60;1.02;;;16.20;88.70;;;;;;4824685;29;20087;-86
2021/08/04 04:49:35;;;;;;;2.60;1.15;;;16.20;88.40;;;;;;4826184;29;20054;-85
2021/08/04 04:52:01;;;;;;;2.08;1.00;;;16.20;88.40;;;;;;4825990;29;20115;-85
2021/08/04 04:54:27;;;;;;;2.05;1.00;;;16.10;88.30;;;;;;4825535;29;20408;-87
2021/08/04 04:56:52;;;;;;;2.67;1.00;;;16.10;88.20;;;;;;4838021;29;20086;-86
2021/08/04 04:59:18;;;;;;;2.65;1.10;;;16.10;88.00;;;;;;4843885;29;20054;-86
2021/08/04 05:01:43;;;;;;;3.38;1.20;;;16.10;88.10;;;;;;4841643;29;20062;-86
2021/08/04 05:04:09;;;;;;;2.58;1.13;;;16.10;88.20;;;;;;4843748;29;20766;-86
2021/08/04 05:06:35;;;;;;;2.00;1.05;;;16.10;88.40;;;;;;4843519;29;20418;-85
2021/08/04 05:09:02;;;;;;;2.13;1.00;;;16.10;88.50;;;;;;4843628;29;20053;-86
2021/08/04 05:11:28;;;;;;;2.53;1.10;;;16.10;88.20;;;;;;4842405;29;20443;-86
2021/08/04 05:13:56;;;;;;;3.92;1.27;;;16.10;87.40;;;;;;4831905;29;20099;-86
2021/08/04 05:16:21;;;;;;;3.97;1.20;;;16.10;87.60;;;;;;4834041;29;20058;-88
2021/08/04 05:18:47;;;;;;;3.20;1.17;;;16.10;87.90;;;;;;4840973;29;20054;-86
2021/08/04 05:21:13;;;;;;;2.30;1.10;;;16.10;87.70;;;;;;4842777;29;20053;-86
2021/08/04 05:23:38;;;;;;;3.40;1.15;;;16.10;87.50;;;;;;4835413;29;20141;-86
2021/08/04 05:26:04;;;;;;;1.77;1.00;;;16.10;88.00;;;;;;4831203;29;20422;-80
2021/08/04 05:28:30;;;;;;;3.05;0.90;;;16.10;88.10;;;;;;4841316;29;20050;-80
2021/08/04 05:30:56;;;;;;;3.40;1.20;;;16.10;88.10;;;;;;4843038;29;20133;-82
2021/08/04 05:33:22;;;;;;;2.13;1.00;;;16.10;87.80;;;;;;4842707;29;20077;-80
2021/08/04 05:35:48;;;;;;;2.78;1.30;;;16.10;87.80;;;;;;4842565;29;20125;-83
2021/08/04 05:38:13;;;;;;;3.58;0.98;;;16.10;87.40;;;;;;4842499;29;20061;-85
2021/08/04 05:40:39;;;;;;;1.70;0.90;;;16.10;87.50;;;;;;4843511;29;20502;-87
2021/08/04 05:43:05;;;;;;;2.45;1.10;;;16.10;87.70;;;;;;4844981;29;20122;-87
2021/08/04 05:45:31;;;;;;;1.98;1.00;;;16.10;87.50;;;;;;4847153;29;20419;-86
2021/08/04 05:48:01;;;;;;;2.45;0.93;;;16.10;88.00;;;;;;4846760;29;20491;-86
2021/08/04 05:50:32;;;;;;;2.15;1.00;;;16.10;88.20;;;;;;4838310;29;20049;-85
2021/08/04 05:52:58;;;;;;;3.30;1.20;;;16.10;88.50;;;;;;4832966;29;20058;-84
2021/08/04 05:55:24;;;;;;;1.98;1.10;;;16.10;88.50;;;;;;4828604;29;20054;-84
2021/08/04 05:57:49;;;;;;;3.22;1.20;;;16.10;88.50;;;;;;4827542;29;20056;-84
2021/08/04 06:00:15;;;;;;;2.53;1.00;;;16.20;89.10;;;;;;4827987;29;20149;-84
2021/08/04 06:02:41;;;;;;;2.03;1.00;;;16.20;88.50;;;;;;4827887;29;20082;-85
2021/08/04 06:05:07;;;;;;;2.90;1.00;;;16.20;88.40;;;;;;4827949;29;20077;-84
2021/08/04 06:07:37;;;;;;;3.05;0.93;;;16.20;88.30;;;;;;4828414;29;20050;-84
2021/08/04 06:10:03;;;;;;;2.20;1.05;;;16.20;87.90;;;;;;4832330;29;20054;-84
2021/08/04 06:12:29;;;;;;;2.53;1.00;;;16.30;88.00;;;;;;4846416;29;20137;-84
2021/08/04 06:14:54;;;;;;;3.78;1.23;;;16.30;87.80;;;;;;4837152;29;20055;-85
2021/08/04 06:17:20;;;;;;;3.15;1.20;;;16.30;87.90;;;;;;4837798;29;20050;-84
2021/08/04 06:19:46;;;;;;;2.20;0.85;;;16.30;88.00;;;;;;4846067;29;20050;-84
2021/08/04 06:22:11;;;;;;;1.80;0.90;;;16.40;88.20;;;;;;4846036;29;20575;-84
2021/08/04 06:24:37;;;;;;;2.42;1.08;;;16.40;88.10;;;;;;4841752;29;20050;-83
2021/08/04 06:27:03;;;;;;;1.95;0.80;;;16.40;88.30;;;;;;4836648;29;20514;-84
2021/08/04 06:29:29;;;;;;;2.60;0.70;;;16.50;87.90;;;;;;4839835;29;20077;-82
2021/08/04 06:31:55;;;;;;;2.40;1.00;;;16.50;87.50;;;;;;4845313;29;20099;-85
2021/08/04 06:34:23;;;;;;;2.17;0.90;;;16.50;87.80;;;;;;4845739;29;20492;-87
2021/08/04 06:36:49;;;;;;;2.47;0.90;;;16.60;87.60;;;;;;4846054;29;20061;-84
2021/08/04 06:39:14;;;;;;;2.75;0.93;;;16.60;87.70;;;;;;4844817;29;20049;-85
2021/08/04 06:41:43;;;;;;;3.50;0.90;;;16.70;87.60;;;;;;4846128;29;20049;-84
2021/08/04 06:44:09;;;;;;;1.27;0.63;;;16.70;87.70;;;;;;4845529;29;20053;-86
2021/08/04 06:46:36;;;;;;;2.60;1.00;;;16.80;87.70;;;;;;4840516;29;20092;-85
2021/08/04 06:49:05;;;;;;;3.20;1.10;;;16.80;87.70;;;;;;4831342;29;20050;-85
2021/08/04 06:51:32;;;;;;;3.05;1.13;;;16.80;87.30;;;;;;4843464;29;20144;-85
2021/08/04 06:53:58;;;;;;;4.70;1.00;;;16.80;87.40;;;;;;4840077;29;20163;-89
2021/08/04 06:56:23;;;;;;;1.52;0.80;;;16.90;87.10;;;;;;4833838;29;20054;-83
2021/08/04 06:58:49;;;;;;;2.70;0.90;;;16.90;87.00;;;;;;4844254;29;20060;-85
2021/08/04 07:01:15;;;;;;;1.95;0.70;;;16.90;86.90;;;;;;4845026;29;20054;-84
2021/08/04 07:03:41;;;;;;;2.55;0.70;;;17.00;87.20;;;;;;4839751;29;20061;-84
2021/08/04 07:06:08;;;;;;;2.10;0.85;;;17.00;88.00;;;;;;4826578;29;20046;-83
2021/08/04 07:08:35;;;;;;;1.95;0.73;;;17.00;87.90;;;;;;4828173;29;20061;-84
2021/08/04 07:11:01;;;;;;;1.67;0.90;;;17.10;87.40;;;;;;4826709;29;20065;-84
2021/08/04 07:13:26;;;;;;;1.40;0.80;;;17.10;87.10;;;;;;4837675;29;20133;-84
2021/08/04 07:15:52;;;;;;;1.80;0.82;;;17.20;87.30;;;;;;4845478;29;20141;-84
2021/08/04 07:18:18;;;;;;;1.55;0.70;;;17.20;87.20;;;;;;4840948;29;20057;-85
2021/08/04 07:20:44;;;;;;;1.80;0.80;;;17.20;86.90;;;;;;4827436;29;20062;-85
2021/08/04 07:23:09;;;;;;;2.05;0.90;;;17.30;86.90;;;;;;4829193;29;20050;-84
2021/08/04 07:25:35;;;;;;;2.25;0.88;;;17.40;87.00;;;;;;4845338;29;20491;-86
2021/08/04 07:28:00;;;;;;;2.42;0.90;;;17.40;86.80;;;;;;4844230;29;20065;-87
2021/08/04 07:30:26;;;;;;;1.63;0.85;;;17.50;86.70;;;;;;4843858;29;20106;-89
2021/08/04 07:32:52;;;;;;;2.47;0.93;;;17.60;86.40;;;;;;4836601;29;20049;-87
2021/08/04 07:35:18;;;;;;;1.70;0.93;;;17.60;86.00;;;;;;4829900;29;20058;-84
2021/08/04 07:37:45;;;;;;;1.70;0.88;;;17.70;86.00;;;;;;4845054;29;20564;-86
2021/08/04 07:40:12;;;;;;;2.30;1.10;;;17.70;86.20;;;;;;4840327;29;20100;-85
2021/08/04 07:42:37;;;;;;;3.78;1.10;;;17.80;86.20;;;;;;4826263;29;20134;-84
2021/08/04 07:45:04;;;;;;;1.70;0.73;;;17.80;85.80;;;;;;4827455;29;20086;-84
2021/08/04 07:47:30;;;;;;;2.25;0.90;;;17.80;85.90;;;;;;4826921;29;20065;-84
2021/08/04 07:49:56;;;;;;;1.77;1.00;;;17.90;86.20;;;;;;4836720;29;20096;-84
2021/08/04 07:52:21;;;;;;;2.72;1.00;;;18.00;86.00;;;;;;4838624;29;20050;-84
2021/08/04 07:54:47;;;;;;;4.15;1.00;;;18.10;85.40;;;;;;4844306;29;20104;-86
2021/08/04 07:57:13;;;;;;;3.42;1.00;;;18.10;85.00;;;;;;4844131;29;20065;-84
2021/08/04 07:59:38;;;;;;;2.17;1.00;;;18.20;84.70;;;;;;4844638;29;20491;-84
2021/08/04 08:02:04;;;;;;;1.35;0.80;;;18.30;84.40;;;;;;4832116;29;20076;-84
2021/08/04 08:04:31;;;;;;;1.63;0.80;;;18.40;84.50;;;;;;4833696;29;20502;-86
2021/08/04 08:06:58;;;;;;;2.67;0.80;;;18.40;84.70;;;;;;4844839;29;20054;-84
2021/08/04 08:09:24;;;;;;;1.85;0.82;;;18.50;84.80;;;;;;4826916;29;20058;-83
2021/08/04 08:11:51;;;;;;;2.40;0.80;;;18.50;85.10;;;;;;4826724;29;20114;-85
2021/08/04 08:14:18;;;;;;;2.13;0.90;;;18.60;84.50;;;;;;4826143;29;20131;-84
2021/08/04 08:16:44;;;;;;;2.50;0.80;;;18.70;84.50;;;;;;4825616;29;20065;-87
2021/08/04 08:19:10;;;;;;;1.90;0.73;;;18.80;84.10;;;;;;4825879;29;20057;-85
2021/08/04 08:21:36;;;;;;;2.03;0.80;;;18.80;83.50;;;;;;4839694;29;20094;-85
2021/08/04 08:24:02;;;;;;;1.42;0.73;;;18.90;83.50;;;;;;4839532;29;20047;-84
2021/08/04 08:26:27;;;;;;;2.13;0.90;;;18.90;83.50;;;;;;4826183;29;20115;-87
2021/08/04 08:28:53;;;;;;;1.63;0.80;;;19.00;83.90;;;;;;4826062;29;20058;-86
2021/08/04 08:31:19;;;;;;;1.95;0.82;;;19.10;83.20;;;;;;4828559;29;20483;-85
2021/08/04 08:33:44;;;;;;;1.55;0.77;;;19.10;83.80;;;;;;4829381;29;20472;-85
2021/08/04 08:36:10;;;;;;;2.33;0.90;;;19.20;83.60;;;;;;4827185;29;20099;-84
2021/08/04 08:38:37;;;;;;;2.30;0.80;;;19.20;83.70;;;;;;4825762;29;20068;-85
2021/08/04 08:41:06;;;;;;;1.80;0.90;;;19.30;84.10;;;;;;4836460;29;20110;-88
2021/08/04 08:43:33;;;;;;;1.33;0.80;;;19.40;83.90;;;;;;4826339;29;20054;-84
2021/08/04 08:45:59;;;;;;;2.38;0.90;;;19.50;84.10;;;;;;4825177;29;20119;-86
2021/08/04 08:48:25;;;;;;;1.73;0.77;;;19.50;82.30;;;;;;4825969;29;20050;-88
2021/08/04 08:50:51;;;;;;;2.78;0.90;;;19.60;82.20;;;;;;4832035;29;20049;-85
2021/08/04 08:53:19;;;;;;;2.08;0.70;;;19.60;83.00;;;;;;4832628;29;20209;-84
2021/08/04 08:55:45;;;;;;;1.23;0.70;;;19.70;82.90;;;;;;4833100;29;20149;-85
2021/08/04 08:58:11;;;;;;;2.40;0.80;;;19.80;83.00;;;;;;4826359;29;20154;-85
2021/08/04 09:00:37;;;;;;;2.45;0.80;;;19.80;83.10;;;;;;4832728;29;20054;-89
2021/08/04 09:03:03;;;;;;;1.48;0.68;;;19.90;82.70;;;;;;4843421;29;20098;-86
2021/08/04 09:05:29;;;;;;;2.42;0.80;;;20.00;82.30;;;;;;4843515;29;20062;-86
2021/08/04 09:07:54;;;;;;;1.92;0.70;;;20.10;81.20;;;;;;4843150;29;20450;-86
2021/08/04 09:10:33;;;;;;;2.40;0.77;;;20.20;81.80;;;;;;4840024;29;20103;-86
2021/08/04 09:13:02;;;;;;;3.03;0.90;;;20.30;82.40;;;;;;4837046;29;20082;-85
2021/08/04 09:15:30;;;;;;;2.35;0.85;;;20.40;82.70;;;;;;4833093;29;20133;-85
2021/08/04 09:17:57;;;;;;;2.13;0.90;;;20.40;81.30;;;;;;4833642;29;20054;-85
2021/08/04 09:20:25;;;;;;;3.50;1.02;;;20.50;81.10;;;;;;4833526;29;20050;-87
2021/08/04 09:22:53;;;;;;;2.20;0.90;;;20.60;80.20;;;;;;4833604;29;20041;-85
2021/08/04 09:25:19;;;;;;;1.83;0.68;;;20.70;80.40;;;;;;4842800;29;20062;-86
2021/08/04 09:27:52;;;;;;;2.67;0.88;;;20.80;79.00;;;;;;4843498;29;20054;-86
2021/08/04 09:30:25;;;;;;;1.00;0.63;;;20.80;79.10;;;;;;4841241;29;20073;-84
2021/08/04 09:32:51;;;;;;;3.13;0.90;;;20.90;79.80;;;;;;4842485;29;20510;-86
2021/08/04 09:35:20;;;;;;;2.15;0.73;;;20.90;78.70;;;;;;4842263;29;20082;-89
2021/08/04 09:37:47;;;;;;;1.77;0.60;;;21.00;79.90;;;;;;4829760;29;20088;-84
2021/08/04 09:40:16;;;;;;;3.38;0.98;;;21.10;79.20;;;;;;4830150;29;20081;-82
2021/08/04 09:42:54;;;;;;;2.63;0.88;;;21.10;78.80;;;;;;4830914;29;20061;-85
2021/08/04 09:45:43;;;;;;;1.95;0.90;;;21.20;79.20;;;;;;4829289;29;20050;-84
2021/08/04 09:48:17;;;;;;;2.03;0.70;;;21.30;79.40;;;;;;4827997;29;20053;-85
2021/08/04 09:51:01;;;;;;;1.65;0.70;;;21.40;80.60;;;;;;4834737;29;20111;-84
2021/08/04 09:53:32;;;;;;;2.90;0.80;;;21.50;79.40;;;;;;4842549;29;20054;-87
2021/08/04 09:56:12;;;;;;;1.67;0.80;;;21.50;77.80;;;;;;4834035;29;20543;-87
2021/08/04 09:58:40;;;;;;;1.83;0.80;;;21.60;78.80;;;;;;4829799;29;20073;-83
2021/08/04 10:01:08;;;;;;;2.28;0.98;;;21.60;79.30;;;;;;4833570;29;20049;-84
2021/08/04 10:03:34;;;;;;;2.10;0.98;;;21.70;78.90;;;;;;4835212;29;20077;-84
2021/08/04 10:06:00;;;;;;;1.77;0.90;;;21.70;79.30;;;;;;4837427;29;20564;-86
2021/08/04 10:08:26;;;;;;;3.00;1.00;;;21.90;78.60;;;;;;4824758;29;20124;-87
2021/08/04 10:10:57;;;;;;;2.25;1.10;;;21.90;75.90;;;;;;4828310;29;20050;-85
2021/08/04 10:13:28;;;;;;;2.65;0.90;;;22.00;75.70;;;;;;4824615;29;20046;-83
2021/08/04 10:15:58;;;;;;;2.05;0.80;;;22.00;78.00;;;;;;4824823;29;20059;-84
2021/08/04 10:18:30;;;;;;;1.88;0.75;;;22.10;79.50;;;;;;4824591;29;20069;-84
2021/08/04 10:21:04;;;;;;;1.23;0.77;;;22.20;79.50;;;;;;4824926;29;20133;-84
2021/08/04 10:23:31;;;;;;;4.85;1.00;;;22.30;80.10;;;;;;4836834;29;20050;-85
2021/08/04 10:25:58;;;;;;;2.55;1.10;;;22.40;75.60;;;;;;4842707;29;20053;-85
2021/08/04 10:28:29;;;;;;;7.90;1.55;;;22.40;77.30;;;;;;4844390;29;20052;-83
2021/08/04 10:30:56;;;;;;;5.25;1.35;;;22.40;75.70;;;;;;4844837;29;20054;-83
2021/08/04 10:33:22;;;;;;;4.43;1.17;;;22.50;75.80;;;;;;4845676;29;20046;-85
2021/08/04 10:35:52;;;;;;;3.38;1.30;;;22.50;75.40;;;;;;4845236;29;20068;-85
2021/08/04 10:38:23;;;;;;;3.45;1.33;;;22.60;74.70;;;;;;4844000;29;20081;-85
2021/08/04 10:41:12;;;;;;;3.60;1.30;;;22.70;73.90;;;;;;4844932;29;20419;-85
2021/08/04 10:43:44;;;;;;;3.33;1.30;;;22.70;73.50;;;;;;4827213;29;20066;-88
2021/08/04 10:49:11;;;;;;;2.35;1.00;;;22.80;72.40;;;;;;4835243;29;20070;-87
2021/08/04 10:51:41;;;;;;;3.28;1.30;;;22.90;72.30;;;;;;4837785;29;20054;-87
2021/08/04 10:54:17;;;;;;;2.92;1.38;;;23.00;72.30;;;;;;4836168;29;20047;-85
2021/08/04 10:56:43;;;;;;;2.92;1.23;;;23.00;71.00;;;;;;4830235;29;20129;-84
2021/08/04 10:59:08;;;;;;;3.30;1.20;;;23.10;70.90;;;;;;4827240;29;20133;-84
2021/08/04 11:01:35;;;;;;;3.63;1.50;;;23.10;70.50;;;;;;4827268;29;20077;-87
2021/08/04 11:04:02;;;;;;;3.20;1.40;;;23.10;70.30;;;;;;4826866;29;20058;-84
2021/08/04 11:06:27;;;;;;;3.58;1.30;;;23.20;70.00;;;;;;4826468;29;20077;-84
2021/08/04 11:09:12;;;;;;;3.40;1.27;;;23.20;69.50;;;;;;4827279;29;20046;-83
2021/08/04 11:11:51;;;;;;;2.80;1.30;;;23.30;69.40;;;;;;4826948;29;20077;-84
2021/08/04 11:14:38;;;;;;;2.67;1.20;;;23.30;69.80;;;;;;4834715;29;20058;-85
2021/08/04 11:17:06;;;;;;;3.80;1.40;;;23.40;68.90;;;;;;4843002;29;20153;-84
2021/08/04 11:19:52;;;;;;;4.53;1.33;;;23.40;69.50;;;;;;4832263;29;20062;-84
2021/08/04 11:22:22;;;;;;;2.95;1.30;;;23.50;69.20;;;;;;4833174;29;20054;-84
2021/08/04 11:24:59;;;;;;;3.60;1.50;;;23.50;69.10;;;;;;4843194;29;20046;-84
2021/08/04 11:27:28;;;;;;;4.95;1.60;;;23.50;68.40;;;;;;4827080;29;20130;-83
2021/08/04 11:29:55;;;;;;;2.88;1.50;;;23.50;68.90;;;;;;4824617;29;20122;-85
2021/08/04 11:32:23;;;;;;;2.67;1.08;;;23.60;68.70;;;;;;4832543;29;20058;-84
2021/08/04 11:34:49;;;;;;;3.85;1.25;;;23.50;65.90;;;;;;4844283;29;20053;-83
2021/08/04 11:37:16;;;;;;;6.55;1.35;;;23.50;67.40;;;;;;4831839;29;20445;-83
2021/08/04 11:39:55;;;;;;;3.58;1.10;;;23.50;67.90;;;;;;4826372;29;20062;-84
2021/08/04 11:42:22;;;;;;;3.22;1.10;;;23.50;67.90;;;;;;4835855;29;20050;-84
2021/08/04 11:44:48;;;;;;;4.60;1.30;;;23.50;67.70;;;;;;4844831;29;20103;-83
2021/08/04 11:47:14;;;;;;;3.05;1.15;;;23.50;67.10;;;;;;4836522;29;20049;-83
2021/08/04 11:49:49;;;;;;;3.97;1.10;;;23.50;65.40;;;;;;4837503;29;20063;-84
2021/08/04 11:52:19;;;;;;;2.97;1.10;;;23.40;66.60;;;;;;4826483;29;20058;-84
2021/08/04 11:54:49;;;;;;;3.10;1.08;;;23.40;65.70;;;;;;4830115;29;20054;-83
2021/08/04 11:57:24;;;;;;;8.00;1.40;;;23.40;67.00;;;;;;4838356;29;20051;-82
2021/08/04 11:59:52;;;;;;;4.47;1.40;;;23.50;67.50;;;;;;4833594;29;20054;-84
2021/08/04 12:02:21;;;;;;;3.10;1.20;;;23.60;64.90;;;;;;4832001;29;20054;-82
2021/08/04 12:04:53;;;;;;;5.05;1.20;;;23.60;65.70;;;;;;4834548;29;20396;-82
2021/08/04 12:07:26;;;;;;;3.40;1.15;;;23.60;65.20;;;;;;4831650;29;20057;-85
2021/08/04 12:09:52;;;;;;;;;;;23.60;65.20;;;;;;4828321;29;20046;-83
2021/08/04 12:12:22;;;;;;;3.97;1.00;;;23.60;66.00;;;;;;4835922;29;20019;-81
2021/08/04 12:14:50;;;;;;;2.83;1.10;;;23.60;66.10;;;;;;4835311;29;20058;-83
2021/08/04 12:17:25;;;;;;;3.22;1.10;;;23.70;65.90;;;;;;4833264;29;20123;-83
2021/08/04 12:19:52;;;;;;;3.42;1.00;;;23.70;65.50;;;;;;4831558;29;20061;-82
2021/08/04 12:22:21;;;;;;;2.67;1.00;;;23.80;66.00;;;;;;4825437;29;20107;-82
2021/08/04 12:24:53;;;;;;;2.67;1.13;;;23.80;64.80;;;;;;4842752;29;20046;-82
2021/08/04 12:27:30;;;;;;;2.90;1.13;;;23.70;64.10;;;;;;4843529;29;20078;-82
2021/08/04 12:30:11;;;;;;;3.60;1.30;;;23.70;65.60;;;;;;4843095;29;20057;-83
2021/08/04 12:33:22;;;;;;;2.42;1.13;;;23.70;65.10;;;;;;4837297;29;20061;-81
2021/08/04 12:36:23;;;;;;;3.55;1.45;;;23.70;65.60;;;;;;4841822;29;20081;-82
2021/08/04 12:38:54;;;;;;;3.60;1.50;;;23.70;64.70;;;;;;4842578;29;20061;-80
2021/08/04 12:41:22;;;;;;;2.65;1.30;;;23.70;65.30;;;;;;4843004;29;20057;-80
2021/08/04 12:43:47;;;;;;;3.47;1.30;;;23.70;64.90;;;;;;4842187;29;20052;-81
2021/08/04 12:46:15;;;;;;;2.75;1.20;;;23.60;64.80;;;;;;4842849;29;20106;-81
2021/08/04 12:48:43;;;;;;;3.88;1.30;;;23.60;64.80;;;;;;4843033;29;20046;-80
2021/08/04 12:51:13;;;;;;;3.22;1.20;;;23.60;64.80;;;;;;4835374;29;20065;-78
2021/08/04 12:53:41;;;;;;;3.53;1.30;;;23.60;64.20;;;;;;4841033;29;20050;-80
2021/08/04 12:56:18;;;;;;;3.38;1.20;;;23.60;63.90;;;;;;4842248;29;20088;-80